sensor_id;sensor_type;location;lat;lon;timestamp;P1;durP1;ratioP1;P2;durP2;ratioP2
3712;SDS011;1872;51.406;6.856;2022-08-02T00:01:42;4.97;;;4.20;;
3712;SDS011;1872;51.406;6.856;2022-08-02T00:04:09;4.70;;;4.30;;
3712;SDS011;1872;51.406;6.856;2022-08-02T00:06:35;5.87;;;4.27;;
3712;SDS011;1872;51.406;6.856;2022-08-02T00:09:02;5.33;;;4.60;;
3712;SDS011;1872;51.406;6.856;2022-08-02T00:11:28;5.03;;;4.53;;
3712;SDS011;1872;51.406;6.856;2022-08-02T00:13:54;6.03;;;4.57;;
3712;SDS011;1872;51.406;6.856;2022-08-02T00:16:20;5.30;;;4.80;;
3712;SDS011;1872;51.406;6.856;2022-08-02T00:18:48;7.27;;;4.77;;
3712;SDS011;1872;51.406;6.856;2022-08-02T00:21:14;5.63;;;4.40;;
3712;SDS011;1872;51.406;6.856;2022-08-02T00:23:40;5.77;;;5.10;;
3712;SDS011;1872;51.406;6.856;2022-08-02T00:26:06;5.87;;;4.67;;
3712;SDS011;1872;51.406;6.856;2022-08-02T00:28:32;5.50;;;5.00;;
3712;SDS011;1872;51.406;6.856;2022-08-02T00:30:57;4.87;;;4.47;;
3712;SDS011;1872;51.406;6.856;2022-08-02T00:33:24;10.63;;;5.50;;
3712;SDS011;1872;51.406;6.856;2022-08-02T00:35:50;7.63;;;5.30;;
3712;SDS011;1872;51.406;6.856;2022-08-02T00:38:15;5.90;;;5.17;;
3712;SDS011;1872;51.406;6.856;2022-08-02T00:40:48;5.43;;;4.80;;
3712;SDS011;1872;51.406;6.856;2022-08-02T00:43:14;6.40;;;5.77;;
3712;SDS011;1872;51.406;6.856;2022-08-02T00:45:41;7.53;;;5.60;;
3712;SDS011;1872;51.406;6.856;2022-08-02T00:48:08;7.70;;;5.80;;
3712;SDS011;1872;51.406;6.856;2022-08-02T00:50:35;5.57;;;5.03;;
3712;SDS011;1872;51.406;6.856;2022-08-02T00:53:02;7.73;;;5.63;;
3712;SDS011;1872;51.406;6.856;2022-08-02T00:55:29;5.17;;;4.67;;
3712;SDS011;1872;51.406;6.856;2022-08-02T00:57:55;5.77;;;4.80;;
3712;SDS011;1872;51.406;6.856;2022-08-02T01:00:21;6.60;;;5.43;;
3712;SDS011;1872;51.406;6.856;2022-08-02T01:02:47;6.03;;;5.43;;
3712;SDS011;1872;51.406;6.856;2022-08-02T01:05:13;6.93;;;4.60;;
3712;SDS011;1872;51.406;6.856;2022-08-02T01:07:39;6.03;;;5.53;;
3712;SDS011;1872;51.406;6.856;2022-08-02T01:10:05;5.10;;;4.60;;
3712;SDS011;1872;51.406;6.856;2022-08-02T01:12:32;6.87;;;5.53;;
3712;SDS011;1872;51.406;6.856;2022-08-02T01:15:06;7.10;;;5.40;;
3712;SDS011;1872;51.406;6.856;2022-08-02T01:17:46;8.87;;;6.30;;
3712;SDS011;1872;51.406;6.856;2022-08-02T01:34:14;7.40;;;6.23;;
3712;SDS011;1872;51.406;6.856;2022-08-02T01:39:49;5.80;;;5.23;;
3712;SDS011;1872;51.406;6.856;2022-08-02T01:42:18;6.07;;;5.47;;
3712;SDS011;1872;51.406;6.856;2022-08-02T01:44:46;6.20;;;5.60;;
3712;SDS011;1872;51.406;6.856;2022-08-02T01:47:19;8.33;;;5.67;;
3712;SDS011;1872;51.406;6.856;2022-08-02T01:50:03;7.20;;;6.60;;
3712;SDS011;1872;51.406;6.856;2022-08-02T01:52:31;6.70;;;5.63;;
3712;SDS011;1872;51.406;6.856;2022-08-02T01:58:07;6.27;;;5.63;;
3712;SDS011;1872;51.406;6.856;2022-08-02T02:00:29;14.60;;;5.83;;
3712;SDS011;1872;51.406;6.856;2022-08-02T02:02:58;7.50;;;5.90;;
3712;SDS011;1872;51.406;6.856;2022-08-02T02:05:26;6.00;;;5.30;;
3712;SDS011;1872;51.406;6.856;2022-08-02T02:07:55;9.80;;;5.80;;
3712;SDS011;1872;51.406;6.856;2022-08-02T02:10:30;5.40;;;4.90;;
3712;SDS011;1872;51.406;6.856;2022-08-02T02:13:01;7.33;;;5.37;;
3712;SDS011;1872;51.406;6.856;2022-08-02T02:19:02;8.03;;;5.40;;
3712;SDS011;1872;51.406;6.856;2022-08-02T02:21:29;7.57;;;5.50;;
3712;SDS011;1872;51.406;6.856;2022-08-02T02:33:02;6.00;;;5.27;;
3712;SDS011;1872;51.406;6.856;2022-08-02T02:35:32;6.07;;;5.43;;
3712;SDS011;1872;51.406;6.856;2022-08-02T02:38:02;6.00;;;5.30;;
3712;SDS011;1872;51.406;6.856;2022-08-02T02:40:30;5.80;;;5.20;;
3712;SDS011;1872;51.406;6.856;2022-08-02T02:42:57;5.90;;;5.30;;
3712;SDS011;1872;51.406;6.856;2022-08-02T02:45:25;6.20;;;5.60;;
3712;SDS011;1872;51.406;6.856;2022-08-02T02:50:55;5.77;;;5.23;;
3712;SDS011;1872;51.406;6.856;2022-08-02T02:53:22;5.97;;;5.37;;
3712;SDS011;1872;51.406;6.856;2022-08-02T02:55:48;6.30;;;5.70;;
3712;SDS011;1872;51.406;6.856;2022-08-02T02:58:15;7.53;;;6.10;;
3712;SDS011;1872;51.406;6.856;2022-08-02T03:00:42;6.90;;;5.27;;
3712;SDS011;1872;51.406;6.856;2022-08-02T03:03:27;6.97;;;5.23;;
3712;SDS011;1872;51.406;6.856;2022-08-02T03:05:54;6.23;;;5.27;;
3712;SDS011;1872;51.406;6.856;2022-08-02T03:08:20;6.30;;;5.33;;
3712;SDS011;1872;51.406;6.856;2022-08-02T03:10:46;5.87;;;5.17;;
3712;SDS011;1872;51.406;6.856;2022-08-02T03:13:12;6.50;;;5.30;;
3712;SDS011;1872;51.406;6.856;2022-08-02T03:15:38;7.47;;;5.70;;
3712;SDS011;1872;51.406;6.856;2022-08-02T03:18:04;6.00;;;5.40;;
3712;SDS011;1872;51.406;6.856;2022-08-02T03:20:32;6.77;;;4.80;;
3712;SDS011;1872;51.406;6.856;2022-08-02T03:22:58;5.20;;;4.40;;
3712;SDS011;1872;51.406;6.856;2022-08-02T03:25:24;5.80;;;5.20;;
3712;SDS011;1872;51.406;6.856;2022-08-02T03:27:49;7.63;;;5.53;;
3712;SDS011;1872;51.406;6.856;2022-08-02T03:30:15;6.80;;;6.20;;
3712;SDS011;1872;51.406;6.856;2022-08-02T03:32:43;5.90;;;5.30;;
3712;SDS011;1872;51.406;6.856;2022-08-02T03:35:11;5.63;;;5.13;;
3712;SDS011;1872;51.406;6.856;2022-08-02T03:37:39;7.57;;;5.60;;
3712;SDS011;1872;51.406;6.856;2022-08-02T03:40:07;6.27;;;5.30;;
3712;SDS011;1872;51.406;6.856;2022-08-02T03:42:33;7.10;;;5.20;;
3712;SDS011;1872;51.406;6.856;2022-08-02T03:45:00;7.03;;;5.53;;
3712;SDS011;1872;51.406;6.856;2022-08-02T03:47:27;5.47;;;4.97;;
3712;SDS011;1872;51.406;6.856;2022-08-02T03:49:55;5.73;;;5.13;;
3712;SDS011;1872;51.406;6.856;2022-08-02T03:52:22;6.53;;;4.40;;
3712;SDS011;1872;51.406;6.856;2022-08-02T03:54:48;6.17;;;5.20;;
3712;SDS011;1872;51.406;6.856;2022-08-02T03:57:14;5.17;;;4.50;;
3712;SDS011;1872;51.406;6.856;2022-08-02T03:59:41;10.80;;;4.90;;
3712;SDS011;1872;51.406;6.856;2022-08-02T04:02:08;5.30;;;4.80;;
3712;SDS011;1872;51.406;6.856;2022-08-02T04:04:34;6.73;;;4.73;;
3712;SDS011;1872;51.406;6.856;2022-08-02T04:07:00;6.10;;;5.60;;
3712;SDS011;1872;51.406;6.856;2022-08-02T04:09:27;5.67;;;5.13;;
3712;SDS011;1872;51.406;6.856;2022-08-02T04:11:52;6.73;;;5.17;;
3712;SDS011;1872;51.406;6.856;2022-08-02T04:14:18;5.77;;;5.27;;
3712;SDS011;1872;51.406;6.856;2022-08-02T04:16:45;6.47;;;5.20;;
3712;SDS011;1872;51.406;6.856;2022-08-02T04:19:27;6.67;;;5.97;;
3712;SDS011;1872;51.406;6.856;2022-08-02T04:22:02;5.80;;;5.20;;
3712;SDS011;1872;51.406;6.856;2022-08-02T04:24:30;7.33;;;5.67;;
3712;SDS011;1872;51.406;6.856;2022-08-02T04:27:02;8.23;;;5.97;;
3712;SDS011;1872;51.406;6.856;2022-08-02T04:29:29;5.90;;;5.40;;
3712;SDS011;1872;51.406;6.856;2022-08-02T04:31:55;5.87;;;5.37;;
3712;SDS011;1872;51.406;6.856;2022-08-02T04:34:21;5.97;;;5.43;;
3712;SDS011;1872;51.406;6.856;2022-08-02T04:36:47;7.60;;;6.37;;
3712;SDS011;1872;51.406;6.856;2022-08-02T04:39:13;8.10;;;5.97;;
3712;SDS011;1872;51.406;6.856;2022-08-02T04:41:40;5.93;;;5.33;;
3712;SDS011;1872;51.406;6.856;2022-08-02T04:44:07;7.03;;;6.23;;
3712;SDS011;1872;51.406;6.856;2022-08-02T04:46:34;7.53;;;6.03;;
3712;SDS011;1872;51.406;6.856;2022-08-02T04:49:00;6.33;;;5.73;;
3712;SDS011;1872;51.406;6.856;2022-08-02T04:51:27;7.10;;;5.50;;
3712;SDS011;1872;51.406;6.856;2022-08-02T04:53:53;8.40;;;6.30;;
3712;SDS011;1872;51.406;6.856;2022-08-02T04:56:19;6.30;;;5.30;;
3712;SDS011;1872;51.406;6.856;2022-08-02T04:58:44;6.30;;;5.70;;
3712;SDS011;1872;51.406;6.856;2022-08-02T05:04:19;7.87;;;6.00;;
3712;SDS011;1872;51.406;6.856;2022-08-02T05:06:44;6.17;;;5.17;;
3712;SDS011;1872;51.406;6.856;2022-08-02T05:09:10;6.53;;;5.80;;
3712;SDS011;1872;51.406;6.856;2022-08-02T05:11:36;6.60;;;6.00;;
3712;SDS011;1872;51.406;6.856;2022-08-02T05:14:01;6.97;;;6.23;;
3712;SDS011;1872;51.406;6.856;2022-08-02T05:16:28;8.80;;;6.77;;
3712;SDS011;1872;51.406;6.856;2022-08-02T05:18:53;6.37;;;5.37;;
3712;SDS011;1872;51.406;6.856;2022-08-02T05:21:19;6.77;;;6.07;;
3712;SDS011;1872;51.406;6.856;2022-08-02T05:23:45;8.37;;;5.13;;
3712;SDS011;1872;51.406;6.856;2022-08-02T05:26:10;6.10;;;5.50;;
3712;SDS011;1872;51.406;6.856;2022-08-02T05:28:36;8.30;;;6.30;;
3712;SDS011;1872;51.406;6.856;2022-08-02T05:31:01;6.37;;;5.40;;
3712;SDS011;1872;51.406;6.856;2022-08-02T05:33:27;7.60;;;6.70;;
3712;SDS011;1872;51.406;6.856;2022-08-02T05:35:53;6.83;;;5.90;;
3712;SDS011;1872;51.406;6.856;2022-08-02T05:38:19;10.10;;;6.60;;
3712;SDS011;1872;51.406;6.856;2022-08-02T05:40:44;8.70;;;7.37;;
3712;SDS011;1872;51.406;6.856;2022-08-02T05:43:11;11.57;;;7.50;;
3712;SDS011;1872;51.406;6.856;2022-08-02T05:45:37;10.10;;;8.20;;
3712;SDS011;1872;51.406;6.856;2022-08-02T05:48:03;10.43;;;7.90;;
3712;SDS011;1872;51.406;6.856;2022-08-02T05:50:29;11.73;;;8.80;;
3712;SDS011;1872;51.406;6.856;2022-08-02T05:53:01;13.17;;;8.50;;
3712;SDS011;1872;51.406;6.856;2022-08-02T05:55:34;9.50;;;8.50;;
3712;SDS011;1872;51.406;6.856;2022-08-02T05:58:19;12.10;;;9.03;;
3712;SDS011;1872;51.406;6.856;2022-08-02T06:00:52;11.77;;;8.70;;
3712;SDS011;1872;51.406;6.856;2022-08-02T06:03:23;10.80;;;7.90;;
3712;SDS011;1872;51.406;6.856;2022-08-02T06:06:12;10.97;;;9.67;;
3712;SDS011;1872;51.406;6.856;2022-08-02T06:08:50;9.80;;;8.50;;
3712;SDS011;1872;51.406;6.856;2022-08-02T06:11:23;14.27;;;9.30;;
3712;SDS011;1872;51.406;6.856;2022-08-02T06:13:53;10.13;;;7.77;;
3712;SDS011;1872;51.406;6.856;2022-08-02T06:16:21;9.30;;;7.83;;
3712;SDS011;1872;51.406;6.856;2022-08-02T06:18:52;10.37;;;8.30;;
3712;SDS011;1872;51.406;6.856;2022-08-02T06:21:18;10.50;;;8.37;;
3712;SDS011;1872;51.406;6.856;2022-08-02T06:23:46;10.37;;;8.40;;
3712;SDS011;1872;51.406;6.856;2022-08-02T06:26:12;11.53;;;7.70;;
3712;SDS011;1872;51.406;6.856;2022-08-02T06:28:38;13.33;;;8.70;;
3712;SDS011;1872;51.406;6.856;2022-08-02T06:31:05;10.23;;;7.83;;
3712;SDS011;1872;51.406;6.856;2022-08-02T06:33:31;10.00;;;8.57;;
3712;SDS011;1872;51.406;6.856;2022-08-02T06:38:26;11.67;;;8.30;;
3712;SDS011;1872;51.406;6.856;2022-08-02T06:41:07;9.17;;;7.83;;
3712;SDS011;1872;51.406;6.856;2022-08-02T06:46:07;9.10;;;8.20;;
3712;SDS011;1872;51.406;6.856;2022-08-02T06:48:33;9.47;;;8.50;;
3712;SDS011;1872;51.406;6.856;2022-08-02T06:51:01;10.97;;;8.03;;
3712;SDS011;1872;51.406;6.856;2022-08-02T06:53:27;11.60;;;8.50;;
3712;SDS011;1872;51.406;6.856;2022-08-02T06:55:53;11.40;;;8.60;;
3712;SDS011;1872;51.406;6.856;2022-08-02T06:58:19;7.95;;;6.90;;
3712;SDS011;1872;51.406;6.856;2022-08-02T07:00:44;8.30;;;6.77;;
3712;SDS011;1872;51.406;6.856;2022-08-02T07:03:12;9.47;;;8.00;;
3712;SDS011;1872;51.406;6.856;2022-08-02T07:05:40;10.27;;;9.27;;
3712;SDS011;1872;51.406;6.856;2022-08-02T07:08:10;10.03;;;7.70;;
3712;SDS011;1872;51.406;6.856;2022-08-02T07:10:36;8.43;;;7.60;;
3712;SDS011;1872;51.406;6.856;2022-08-02T07:13:02;13.20;;;8.20;;
3712;SDS011;1872;51.406;6.856;2022-08-02T07:15:27;8.77;;;7.97;;
3712;SDS011;1872;51.406;6.856;2022-08-02T07:17:53;9.30;;;7.50;;
3712;SDS011;1872;51.406;6.856;2022-08-02T07:20:24;9.97;;;7.30;;
3712;SDS011;1872;51.406;6.856;2022-08-02T07:22:50;10.37;;;6.30;;
3712;SDS011;1872;51.406;6.856;2022-08-02T07:25:15;6.97;;;6.27;;
3712;SDS011;1872;51.406;6.856;2022-08-02T07:27:44;9.70;;;7.10;;
3712;SDS011;1872;51.406;6.856;2022-08-02T07:30:12;7.10;;;6.10;;
3712;SDS011;1872;51.406;6.856;2022-08-02T07:32:39;7.17;;;4.67;;
3712;SDS011;1872;51.406;6.856;2022-08-02T07:35:05;9.13;;;6.57;;
3712;SDS011;1872;51.406;6.856;2022-08-02T07:37:31;8.60;;;6.40;;
3712;SDS011;1872;51.406;6.856;2022-08-02T07:40:00;7.40;;;6.70;;
3712;SDS011;1872;51.406;6.856;2022-08-02T07:42:25;6.57;;;4.87;;
3712;SDS011;1872;51.406;6.856;2022-08-02T07:44:53;8.67;;;6.13;;
3712;SDS011;1872;51.406;6.856;2022-08-02T07:47:22;6.63;;;5.93;;
3712;SDS011;1872;51.406;6.856;2022-08-02T07:49:48;5.67;;;5.10;;
3712;SDS011;1872;51.406;6.856;2022-08-02T07:52:15;7.90;;;5.90;;
3712;SDS011;1872;51.406;6.856;2022-08-02T07:54:41;7.20;;;5.40;;
3712;SDS011;1872;51.406;6.856;2022-08-02T07:57:13;5.93;;;5.33;;
3712;SDS011;1872;51.406;6.856;2022-08-02T08:02:12;6.40;;;5.90;;
3712;SDS011;1872;51.406;6.856;2022-08-02T08:04:39;7.17;;;4.83;;
3712;SDS011;1872;51.406;6.856;2022-08-02T08:07:06;5.50;;;5.00;;
3712;SDS011;1872;51.406;6.856;2022-08-02T08:09:37;5.90;;;5.30;;
3712;SDS011;1872;51.406;6.856;2022-08-02T08:12:05;4.70;;;4.30;;
3712;SDS011;1872;51.406;6.856;2022-08-02T08:14:37;6.23;;;4.83;;
3712;SDS011;1872;51.406;6.856;2022-08-02T08:17:04;6.23;;;5.07;;
3712;SDS011;1872;51.406;6.856;2022-08-02T08:19:30;6.43;;;4.53;;
3712;SDS011;1872;51.406;6.856;2022-08-02T08:21:57;4.93;;;4.43;;
3712;SDS011;1872;51.406;6.856;2022-08-02T08:24:26;5.40;;;4.90;;
3712;SDS011;1872;51.406;6.856;2022-08-02T08:26:53;7.57;;;5.17;;
3712;SDS011;1872;51.406;6.856;2022-08-02T08:29:20;8.00;;;5.20;;
3712;SDS011;1872;51.406;6.856;2022-08-02T08:31:47;4.67;;;4.27;;
3712;SDS011;1872;51.406;6.856;2022-08-02T08:34:15;5.07;;;4.67;;
3712;SDS011;1872;51.406;6.856;2022-08-02T08:36:43;5.13;;;4.73;;
3712;SDS011;1872;51.406;6.856;2022-08-02T08:39:09;7.80;;;7.10;;
3712;SDS011;1872;51.406;6.856;2022-08-02T08:41:35;6.10;;;5.63;;
3712;SDS011;1872;51.406;6.856;2022-08-02T08:44:01;6.53;;;5.40;;
3712;SDS011;1872;51.406;6.856;2022-08-02T08:46:28;6.30;;;4.50;;
3712;SDS011;1872;51.406;6.856;2022-08-02T08:49:00;7.97;;;4.83;;
3712;SDS011;1872;51.406;6.856;2022-08-02T08:51:36;6.00;;;5.50;;
3712;SDS011;1872;51.406;6.856;2022-08-02T08:54:06;5.60;;;5.10;;
3712;SDS011;1872;51.406;6.856;2022-08-02T08:56:41;5.30;;;4.83;;
3712;SDS011;1872;51.406;6.856;2022-08-02T08:59:07;5.33;;;4.90;;
3712;SDS011;1872;51.406;6.856;2022-08-02T09:01:34;5.20;;;4.70;;
3712;SDS011;1872;51.406;6.856;2022-08-02T09:04:00;5.83;;;5.33;;
3712;SDS011;1872;51.406;6.856;2022-08-02T09:06:26;5.80;;;5.30;;
3712;SDS011;1872;51.406;6.856;2022-08-02T09:08:52;6.70;;;5.97;;
3712;SDS011;1872;51.406;6.856;2022-08-02T09:11:18;5.20;;;4.70;;
3712;SDS011;1872;51.406;6.856;2022-08-02T09:13:51;6.70;;;6.10;;
3712;SDS011;1872;51.406;6.856;2022-08-02T09:16:26;6.40;;;5.80;;
3712;SDS011;1872;51.406;6.856;2022-08-02T09:19:22;6.77;;;6.17;;
3712;SDS011;1872;51.406;6.856;2022-08-02T09:21:50;6.73;;;6.13;;
3712;SDS011;1872;51.406;6.856;2022-08-02T09:24:24;6.23;;;5.63;;
3712;SDS011;1872;51.406;6.856;2022-08-02T09:26:50;10.53;;;6.07;;
3712;SDS011;1872;51.406;6.856;2022-08-02T09:29:16;7.50;;;5.43;;
3712;SDS011;1872;51.406;6.856;2022-08-02T09:31:46;7.57;;;6.73;;
3712;SDS011;1872;51.406;6.856;2022-08-02T09:34:12;8.33;;;7.00;;
3712;SDS011;1872;51.406;6.856;2022-08-02T09:36:45;5.83;;;5.33;;
3712;SDS011;1872;51.406;6.856;2022-08-02T09:39:13;5.63;;;5.23;;
3712;SDS011;1872;51.406;6.856;2022-08-02T09:41:41;5.50;;;5.00;;
3712;SDS011;1872;51.406;6.856;2022-08-02T09:44:09;5.70;;;5.20;;
3712;SDS011;1872;51.406;6.856;2022-08-02T09:46:37;6.17;;;5.67;;
3712;SDS011;1872;51.406;6.856;2022-08-02T09:49:07;6.10;;;5.67;;
3712;SDS011;1872;51.406;6.856;2022-08-02T09:51:35;5.07;;;4.67;;
3712;SDS011;1872;51.406;6.856;2022-08-02T09:54:25;5.00;;;4.60;;
3712;SDS011;1872;51.406;6.856;2022-08-02T09:56:52;7.70;;;5.90;;
3712;SDS011;1872;51.406;6.856;2022-08-02T09:59:20;6.00;;;5.47;;
3712;SDS011;1872;51.406;6.856;2022-08-02T10:01:59;5.70;;;5.20;;
3712;SDS011;1872;51.406;6.856;2022-08-02T10:04:28;4.87;;;4.43;;
3712;SDS011;1872;51.406;6.856;2022-08-02T10:06:54;6.33;;;5.40;;
3712;SDS011;1872;51.406;6.856;2022-08-02T10:09:20;4.97;;;4.63;;
3712;SDS011;1872;51.406;6.856;2022-08-02T10:11:47;4.97;;;4.30;;
3712;SDS011;1872;51.406;6.856;2022-08-02T10:14:16;5.77;;;5.27;;
3712;SDS011;1872;51.406;6.856;2022-08-02T10:16:44;5.00;;;4.57;;
3712;SDS011;1872;51.406;6.856;2022-08-02T10:19:10;5.23;;;4.70;;
3712;SDS011;1872;51.406;6.856;2022-08-02T10:21:39;4.67;;;4.37;;
3712;SDS011;1872;51.406;6.856;2022-08-02T10:24:09;5.70;;;5.10;;
3712;SDS011;1872;51.406;6.856;2022-08-02T10:26:42;4.33;;;4.03;;
3712;SDS011;1872;51.406;6.856;2022-08-02T10:29:09;5.90;;;5.40;;
3712;SDS011;1872;51.406;6.856;2022-08-02T10:31:42;6.10;;;5.10;;
3712;SDS011;1872;51.406;6.856;2022-08-02T10:34:29;4.83;;;4.50;;
3712;SDS011;1872;51.406;6.856;2022-08-02T10:37:09;5.77;;;5.17;;
3712;SDS011;1872;51.406;6.856;2022-08-02T10:39:44;5.27;;;4.90;;
3712;SDS011;1872;51.406;6.856;2022-08-02T10:42:10;4.67;;;4.27;;
3712;SDS011;1872;51.406;6.856;2022-08-02T10:44:37;4.77;;;4.37;;
3712;SDS011;1872;51.406;6.856;2022-08-02T10:49:53;4.90;;;4.40;;
3712;SDS011;1872;51.406;6.856;2022-08-02T10:52:26;4.77;;;4.47;;
3712;SDS011;1872;51.406;6.856;2022-08-02T10:55:08;4.77;;;4.37;;
3712;SDS011;1872;51.406;6.856;2022-08-02T10:57:35;3.80;;;3.50;;
3712;SDS011;1872;51.406;6.856;2022-08-02T11:00:12;4.10;;;3.80;;
3712;SDS011;1872;51.406;6.856;2022-08-02T11:02:59;3.90;;;3.60;;
3712;SDS011;1872;51.406;6.856;2022-08-02T11:05:29;4.37;;;4.07;;
3712;SDS011;1872;51.406;6.856;2022-08-02T11:07:56;3.80;;;3.53;;
3712;SDS011;1872;51.406;6.856;2022-08-02T11:13:02;4.43;;;4.03;;
3712;SDS011;1872;51.406;6.856;2022-08-02T11:15:50;4.30;;;4.00;;
3712;SDS011;1872;51.406;6.856;2022-08-02T11:18:18;4.13;;;3.80;;
3712;SDS011;1872;51.406;6.856;2022-08-02T11:20:45;4.57;;;4.27;;
3712;SDS011;1872;51.406;6.856;2022-08-02T11:28:57;4.33;;;4.03;;
3712;SDS011;1872;51.406;6.856;2022-08-02T11:31:28;4.87;;;4.37;;
3712;SDS011;1872;51.406;6.856;2022-08-02T11:34:02;6.23;;;4.13;;
3712;SDS011;1872;51.406;6.856;2022-08-02T11:36:29;5.23;;;4.30;;
3712;SDS011;1872;51.406;6.856;2022-08-02T11:39:14;5.03;;;4.53;;
3712;SDS011;1872;51.406;6.856;2022-08-02T11:41:42;4.10;;;3.80;;
3712;SDS011;1872;51.406;6.856;2022-08-02T11:44:22;4.43;;;4.07;;
3712;SDS011;1872;51.406;6.856;2022-08-02T11:46:52;4.33;;;4.00;;
3712;SDS011;1872;51.406;6.856;2022-08-02T11:49:23;4.13;;;3.83;;
3712;SDS011;1872;51.406;6.856;2022-08-02T11:51:56;4.20;;;3.90;;
3712;SDS011;1872;51.406;6.856;2022-08-02T11:54:33;3.47;;;3.27;;
3712;SDS011;1872;51.406;6.856;2022-08-02T11:57:35;4.60;;;4.30;;
3712;SDS011;1872;51.406;6.856;2022-08-02T11:59:54;5.03;;;3.83;;
3712;SDS011;1872;51.406;6.856;2022-08-02T12:02:30;4.50;;;4.00;;
3712;SDS011;1872;51.406;6.856;2022-08-02T12:05:01;4.30;;;4.00;;
3712;SDS011;1872;51.406;6.856;2022-08-02T12:07:34;3.97;;;3.57;;
3712;SDS011;1872;51.406;6.856;2022-08-02T12:12:30;4.10;;;3.77;;
3712;SDS011;1872;51.406;6.856;2022-08-02T12:14:56;4.20;;;3.80;;
3712;SDS011;1872;51.406;6.856;2022-08-02T12:17:25;4.53;;;4.13;;
3712;SDS011;1872;51.406;6.856;2022-08-02T12:20:10;4.00;;;3.53;;
3712;SDS011;1872;51.406;6.856;2022-08-02T12:22:38;3.83;;;3.63;;
3712;SDS011;1872;51.406;6.856;2022-08-02T12:25:17;3.60;;;3.40;;
3712;SDS011;1872;51.406;6.856;2022-08-02T12:27:44;4.77;;;4.03;;
3712;SDS011;1872;51.406;6.856;2022-08-02T12:30:15;3.50;;;3.30;;
3712;SDS011;1872;51.406;6.856;2022-08-02T12:32:42;3.40;;;3.20;;
3712;SDS011;1872;51.406;6.856;2022-08-02T12:35:10;3.70;;;3.43;;
3712;SDS011;1872;51.406;6.856;2022-08-02T12:37:42;4.00;;;3.63;;
3712;SDS011;1872;51.406;6.856;2022-08-02T12:40:43;4.10;;;3.80;;
3712;SDS011;1872;51.406;6.856;2022-08-02T12:43:04;3.87;;;3.57;;
3712;SDS011;1872;51.406;6.856;2022-08-02T12:45:54;4.00;;;3.70;;
3712;SDS011;1872;51.406;6.856;2022-08-02T12:48:35;4.47;;;4.07;;
3712;SDS011;1872;51.406;6.856;2022-08-02T12:51:18;3.83;;;3.53;;
3712;SDS011;1872;51.406;6.856;2022-08-02T12:53:44;3.40;;;3.20;;
3712;SDS011;1872;51.406;6.856;2022-08-02T12:56:09;3.67;;;3.40;;
3712;SDS011;1872;51.406;6.856;2022-08-02T12:58:45;3.80;;;3.20;;
3712;SDS011;1872;51.406;6.856;2022-08-02T13:01:13;4.03;;;3.67;;
3712;SDS011;1872;51.406;6.856;2022-08-02T13:03:46;3.47;;;3.23;;
3712;SDS011;1872;51.406;6.856;2022-08-02T13:06:12;3.33;;;3.13;;
3712;SDS011;1872;51.406;6.856;2022-08-02T13:08:38;3.50;;;3.30;;
3712;SDS011;1872;51.406;6.856;2022-08-02T13:11:07;3.93;;;3.57;;
3712;SDS011;1872;51.406;6.856;2022-08-02T13:13:39;6.20;;;3.87;;
3712;SDS011;1872;51.406;6.856;2022-08-02T13:16:05;4.10;;;3.70;;
3712;SDS011;1872;51.406;6.856;2022-08-02T13:18:32;3.50;;;3.20;;
3712;SDS011;1872;51.406;6.856;2022-08-02T13:20:58;4.20;;;3.90;;
3712;SDS011;1872;51.406;6.856;2022-08-02T13:23:31;3.40;;;3.20;;
3712;SDS011;1872;51.406;6.856;2022-08-02T13:25:57;4.00;;;3.70;;
3712;SDS011;1872;51.406;6.856;2022-08-02T13:28:23;3.67;;;3.10;;
3712;SDS011;1872;51.406;6.856;2022-08-02T13:30:49;3.70;;;3.40;;
3712;SDS011;1872;51.406;6.856;2022-08-02T13:33:15;3.80;;;3.50;;
3712;SDS011;1872;51.406;6.856;2022-08-02T13:35:41;3.90;;;3.60;;
3712;SDS011;1872;51.406;6.856;2022-08-02T13:38:08;3.13;;;2.77;;
3712;SDS011;1872;51.406;6.856;2022-08-02T13:40:33;3.70;;;3.40;;
3712;SDS011;1872;51.406;6.856;2022-08-02T13:43:19;3.10;;;2.90;;
3712;SDS011;1872;51.406;6.856;2022-08-02T13:45:47;3.20;;;3.00;;
3712;SDS011;1872;51.406;6.856;2022-08-02T13:48:13;2.80;;;2.60;;
3712;SDS011;1872;51.406;6.856;2022-08-02T13:50:39;4.00;;;3.63;;
3712;SDS011;1872;51.406;6.856;2022-08-02T13:53:05;13.45;;;3.83;;
3712;SDS011;1872;51.406;6.856;2022-08-02T13:55:31;6.30;;;3.80;;
3712;SDS011;1872;51.406;6.856;2022-08-02T13:57:56;3.80;;;3.50;;
3712;SDS011;1872;51.406;6.856;2022-08-02T14:00:22;6.10;;;4.07;;
3712;SDS011;1872;51.406;6.856;2022-08-02T14:02:48;3.30;;;3.00;;
3712;SDS011;1872;51.406;6.856;2022-08-02T14:05:13;5.00;;;3.67;;
3712;SDS011;1872;51.406;6.856;2022-08-02T14:07:41;3.20;;;2.97;;
3712;SDS011;1872;51.406;6.856;2022-08-02T14:10:07;4.90;;;4.50;;
3712;SDS011;1872;51.406;6.856;2022-08-02T14:12:33;5.40;;;3.93;;
3712;SDS011;1872;51.406;6.856;2022-08-02T14:14:59;3.73;;;3.43;;
3712;SDS011;1872;51.406;6.856;2022-08-02T14:17:24;4.00;;;3.60;;
3712;SDS011;1872;51.406;6.856;2022-08-02T14:19:50;3.90;;;3.60;;
3712;SDS011;1872;51.406;6.856;2022-08-02T14:22:16;3.97;;;3.50;;
3712;SDS011;1872;51.406;6.856;2022-08-02T14:24:42;4.13;;;3.53;;
3712;SDS011;1872;51.406;6.856;2022-08-02T14:27:08;7.80;;;3.40;;
3712;SDS011;1872;51.406;6.856;2022-08-02T14:29:34;4.53;;;3.53;;
3712;SDS011;1872;51.406;6.856;2022-08-02T14:32:00;4.20;;;3.90;;
3712;SDS011;1872;51.406;6.856;2022-08-02T14:34:26;2.60;;;2.40;;
3712;SDS011;1872;51.406;6.856;2022-08-02T14:36:52;2.97;;;2.77;;
3712;SDS011;1872;51.406;6.856;2022-08-02T14:39:26;5.70;;;3.70;;
3712;SDS011;1872;51.406;6.856;2022-08-02T14:41:51;3.60;;;3.30;;
3712;SDS011;1872;51.406;6.856;2022-08-02T14:44:17;4.30;;;3.07;;
3712;SDS011;1872;51.406;6.856;2022-08-02T14:46:45;6.20;;;3.13;;
3712;SDS011;1872;51.406;6.856;2022-08-02T14:49:13;3.70;;;3.40;;
3712;SDS011;1872;51.406;6.856;2022-08-02T14:51:38;3.87;;;3.57;;
3712;SDS011;1872;51.406;6.856;2022-08-02T14:54:07;3.40;;;3.10;;
3712;SDS011;1872;51.406;6.856;2022-08-02T14:56:34;3.30;;;3.00;;
3712;SDS011;1872;51.406;6.856;2022-08-02T14:59:04;2.83;;;2.63;;
3712;SDS011;1872;51.406;6.856;2022-08-02T15:01:38;3.63;;;3.33;;
3712;SDS011;1872;51.406;6.856;2022-08-02T15:04:04;3.60;;;3.10;;
3712;SDS011;1872;51.406;6.856;2022-08-02T15:06:30;3.37;;;3.13;;
3712;SDS011;1872;51.406;6.856;2022-08-02T15:08:57;3.43;;;3.13;;
3712;SDS011;1872;51.406;6.856;2022-08-02T15:11:23;3.50;;;3.23;;
3712;SDS011;1872;51.406;6.856;2022-08-02T15:13:50;3.40;;;3.17;;
3712;SDS011;1872;51.406;6.856;2022-08-02T15:16:19;3.27;;;2.97;;
3712;SDS011;1872;51.406;6.856;2022-08-02T15:18:51;3.47;;;3.20;;
3712;SDS011;1872;51.406;6.856;2022-08-02T15:21:17;2.90;;;2.67;;
3712;SDS011;1872;51.406;6.856;2022-08-02T15:23:42;2.93;;;2.60;;
3712;SDS011;1872;51.406;6.856;2022-08-02T15:26:09;3.20;;;2.90;;
3712;SDS011;1872;51.406;6.856;2022-08-02T15:28:35;2.83;;;2.60;;
3712;SDS011;1872;51.406;6.856;2022-08-02T15:31:04;3.17;;;2.77;;
3712;SDS011;1872;51.406;6.856;2022-08-02T15:33:30;3.17;;;2.87;;
3712;SDS011;1872;51.406;6.856;2022-08-02T15:35:57;3.30;;;2.83;;
3712;SDS011;1872;51.406;6.856;2022-08-02T15:38:22;3.27;;;2.97;;
3712;SDS011;1872;51.406;6.856;2022-08-02T15:40:49;3.07;;;2.87;;
3712;SDS011;1872;51.406;6.856;2022-08-02T15:43:16;2.50;;;2.33;;
3712;SDS011;1872;51.406;6.856;2022-08-02T15:45:43;3.10;;;2.90;;
3712;SDS011;1872;51.406;6.856;2022-08-02T15:48:10;3.23;;;2.70;;
3712;SDS011;1872;51.406;6.856;2022-08-02T15:50:37;2.80;;;2.60;;
3712;SDS011;1872;51.406;6.856;2022-08-02T15:53:06;3.10;;;2.80;;
3712;SDS011;1872;51.406;6.856;2022-08-02T15:55:35;2.40;;;2.30;;
3712;SDS011;1872;51.406;6.856;2022-08-02T15:58:03;2.40;;;2.30;;
3712;SDS011;1872;51.406;6.856;2022-08-02T16:00:29;3.63;;;2.90;;
3712;SDS011;1872;51.406;6.856;2022-08-02T16:02:56;2.97;;;2.67;;
3712;SDS011;1872;51.406;6.856;2022-08-02T16:05:21;4.10;;;3.70;;
3712;SDS011;1872;51.406;6.856;2022-08-02T16:07:47;3.63;;;3.33;;
3712;SDS011;1872;51.406;6.856;2022-08-02T16:10:14;3.50;;;2.97;;
3712;SDS011;1872;51.406;6.856;2022-08-02T16:12:40;2.70;;;2.50;;
3712;SDS011;1872;51.406;6.856;2022-08-02T16:15:06;2.80;;;2.60;;
3712;SDS011;1872;51.406;6.856;2022-08-02T16:17:32;3.53;;;3.10;;
3712;SDS011;1872;51.406;6.856;2022-08-02T16:19:58;2.60;;;2.40;;
3712;SDS011;1872;51.406;6.856;2022-08-02T16:22:23;3.10;;;2.90;;
3712;SDS011;1872;51.406;6.856;2022-08-02T16:24:49;2.43;;;2.23;;